sensor_id;sensor_type;location;lat;lon;timestamp;pressure;altitude;pressure_sealevel;temperature
72675;BMP280;60752;53.962;9.614;2022-08-27T00:01:50;101425.44;;;20.33
72675;BMP280;60752;53.962;9.614;2022-08-27T00:06:52;101415.56;;;20.33
72675;BMP280;60752;53.962;9.614;2022-08-27T00:11:53;101421.88;;;20.29
72675;BMP280;60752;53.962;9.614;2022-08-27T00:16:54;101413.91;;;20.29
72675;BMP280;60752;53.962;9.614;2022-08-27T00:21:56;101415.75;;;20.28
72675;BMP280;60752;53.962;9.614;2022-08-27T00:26:57;101415.63;;;20.25
72675;BMP280;60752;53.962;9.614;2022-08-27T00:31:57;101412.84;;;20.21
72675;BMP280;60752;53.962;9.614;2022-08-27T00:36:59;101415.97;;;20.23
72675;BMP280;60752;53.962;9.614;2022-08-27T00:41:59;101416.00;;;20.15
72675;BMP280;60752;53.962;9.614;2022-08-27T00:47:04;101425.22;;;20.17
72675;BMP280;60752;53.962;9.614;2022-08-27T00:52:11;101427.22;;;20.20
72675;BMP280;60752;53.962;9.614;2022-08-27T00:57:13;101418.03;;;20.18
72675;BMP280;60752;53.962;9.614;2022-08-27T01:02:14;101424.44;;;20.17
72675;BMP280;60752;53.962;9.614;2022-08-27T01:07:17;101430.25;;;20.10
72675;BMP280;60752;53.962;9.614;2022-08-27T01:12:18;101426.72;;;19.97
72675;BMP280;60752;53.962;9.614;2022-08-27T01:17:19;101433.28;;;20.00
72675;BMP280;60752;53.962;9.614;2022-08-27T01:22:27;101431.41;;;20.00
72675;BMP280;60752;53.962;9.614;2022-08-27T01:27:30;101437.94;;;20.03
72675;BMP280;60752;53.962;9.614;2022-08-27T01:32:33;101429.56;;;19.92
72675;BMP280;60752;53.962;9.614;2022-08-27T01:37:34;101448.00;;;19.97
72675;BMP280;60752;53.962;9.614;2022-08-27T01:42:38;101445.06;;;19.90
72675;BMP280;60752;53.962;9.614;2022-08-27T01:47:39;101442.72;;;19.89
72675;BMP280;60752;53.962;9.614;2022-08-27T01:52:40;101453.34;;;19.89
72675;BMP280;60752;53.962;9.614;2022-08-27T01:57:42;101454.78;;;19.86
72675;BMP280;60752;53.962;9.614;2022-08-27T02:02:43;101447.09;;;19.85
72675;BMP280;60752;53.962;9.614;2022-08-27T02:07:44;101438.69;;;19.74
72675;BMP280;60752;53.962;9.614;2022-08-27T02:12:46;101439.34;;;19.71
72675;BMP280;60752;53.962;9.614;2022-08-27T02:17:46;101438.41;;;19.67
72675;BMP280;60752;53.962;9.614;2022-08-27T02:22:47;101434.53;;;19.56
72675;BMP280;60752;53.962;9.614;2022-08-27T02:27:50;101434.84;;;19.54
72675;BMP280;60752;53.962;9.614;2022-08-27T02:32:50;101432.66;;;19.56
72675;BMP280;60752;53.962;9.614;2022-08-27T02:37:51;101416.25;;;19.54
72675;BMP280;60752;53.962;9.614;2022-08-27T02:42:53;101422.63;;;19.53
72675;BMP280;60752;53.962;9.614;2022-08-27T02:47:54;101422.06;;;19.48
72675;BMP280;60752;53.962;9.614;2022-08-27T02:52:54;101416.91;;;19.43
72675;BMP280;60752;53.962;9.614;2022-08-27T02:57:56;101424.38;;;19.41
72675;BMP280;60752;53.962;9.614;2022-08-27T03:02:56;101425.66;;;19.34
72675;BMP280;60752;53.962;9.614;2022-08-27T03:07:57;101425.81;;;19.38
72675;BMP280;60752;53.962;9.614;2022-08-27T03:12:59;101418.16;;;19.36
72675;BMP280;60752;53.962;9.614;2022-08-27T03:17:59;101424.56;;;19.35
72675;BMP280;60752;53.962;9.614;2022-08-27T03:22:59;101415.50;;;19.36
72675;BMP280;60752;53.962;9.614;2022-08-27T03:28:02;101423.47;;;19.36
72675;BMP280;60752;53.962;9.614;2022-08-27T03:33:03;101426.75;;;19.42
72675;BMP280;60752;53.962;9.614;2022-08-27T03:38:03;101430.84;;;19.31
72675;BMP280;60752;53.962;9.614;2022-08-27T03:43:05;101428.16;;;19.40
72675;BMP280;60752;53.962;9.614;2022-08-27T03:48:05;101427.84;;;19.32
72675;BMP280;60752;53.962;9.614;2022-08-27T03:53:06;101429.41;;;19.33
72675;BMP280;60752;53.962;9.614;2022-08-27T03:58:10;101427.41;;;19.30
72675;BMP280;60752;53.962;9.614;2022-08-27T04:03:11;101436.44;;;19.29
72675;BMP280;60752;53.962;9.614;2022-08-27T04:08:12;101430.69;;;19.27
72675;BMP280;60752;53.962;9.614;2022-08-27T04:13:14;101429.44;;;19.25
72675;BMP280;60752;53.962;9.614;2022-08-27T04:18:14;101418.38;;;19.14
72675;BMP280;60752;53.962;9.614;2022-08-27T04:23:15;101427.44;;;19.05
72675;BMP280;60752;53.962;9.614;2022-08-27T04:28:17;101431.47;;;18.93
72675;BMP280;60752;53.962;9.614;2022-08-27T04:33:17;101434.59;;;18.95
72675;BMP280;60752;53.962;9.614;2022-08-27T04:38:18;101435.53;;;18.99
72675;BMP280;60752;53.962;9.614;2022-08-27T04:43:20;101435.69;;;18.94
72675;BMP280;60752;53.962;9.614;2022-08-27T04:48:20;101438.81;;;18.88
72675;BMP280;60752;53.962;9.614;2022-08-27T04:53:21;101445.38;;;18.90
72675;BMP280;60752;53.962;9.614;2022-08-27T04:58:24;101441.94;;;18.90
72675;BMP280;60752;53.962;9.614;2022-08-27T05:03:24;101436.44;;;18.78
72675;BMP280;60752;53.962;9.614;2022-08-27T05:08:25;101439.09;;;18.78
72675;BMP280;60752;53.962;9.614;2022-08-27T05:13:27;101446.13;;;18.82
72675;BMP280;60752;53.962;9.614;2022-08-27T05:18:29;101444.56;;;18.81
72675;BMP280;60752;53.962;9.614;2022-08-27T05:23:29;101450.34;;;18.75
72675;BMP280;60752;53.962;9.614;2022-08-27T05:28:31;101447.53;;;18.71
72675;BMP280;60752;53.962;9.614;2022-08-27T05:33:32;101450.19;;;18.71
72675;BMP280;60752;53.962;9.614;2022-08-27T05:38:33;101443.19;;;18.75
72675;BMP280;60752;53.962;9.614;2022-08-27T05:43:37;101446.94;;;18.74
72675;BMP280;60752;53.962;9.614;2022-08-27T05:48:39;101454.09;;;18.74
72675;BMP280;60752;53.962;9.614;2022-08-27T05:53:41;101455.53;;;18.80
72675;BMP280;60752;53.962;9.614;2022-08-27T05:58:42;101459.25;;;18.87
72675;BMP280;60752;53.962;9.614;2022-08-27T06:03:43;101460.81;;;18.88
72675;BMP280;60752;53.962;9.614;2022-08-27T06:08:44;101471.91;;;18.90
72675;BMP280;60752;53.962;9.614;2022-08-27T06:13:46;101471.13;;;18.90
72675;BMP280;60752;53.962;9.614;2022-08-27T06:18:47;101471.59;;;18.92
72675;BMP280;60752;53.962;9.614;2022-08-27T06:23:48;101473.78;;;18.90
72675;BMP280;60752;53.962;9.614;2022-08-27T06:28:50;101472.53;;;18.87
72675;BMP280;60752;53.962;9.614;2022-08-27T06:33:52;101487.03;;;18.81
72675;BMP280;60752;53.962;9.614;2022-08-27T06:38:53;101491.41;;;18.86
72675;BMP280;60752;53.962;9.614;2022-08-27T06:43:55;101482.06;;;18.88
72675;BMP280;60752;53.962;9.614;2022-08-27T06:48:58;101478.00;;;19.08
72675;BMP280;60752;53.962;9.614;2022-08-27T06:54:00;101477.38;;;19.20
72675;BMP280;60752;53.962;9.614;2022-08-27T06:59:06;101481.28;;;19.22
72675;BMP280;60752;53.962;9.614;2022-08-27T07:04:09;101480.81;;;19.29
72675;BMP280;60752;53.962;9.614;2022-08-27T07:09:10;101472.38;;;19.35
72675;BMP280;60752;53.962;9.614;2022-08-27T07:14:12;101478.28;;;19.41
72675;BMP280;60752;53.962;9.614;2022-08-27T07:19:12;101476.91;;;19.44
72675;BMP280;60752;53.962;9.614;2022-08-27T07:24:13;101476.91;;;19.44
72675;BMP280;60752;53.962;9.614;2022-08-27T07:29:15;101475.97;;;19.40
72675;BMP280;60752;53.962;9.614;2022-08-27T07:34:15;101490.50;;;19.42
72675;BMP280;60752;53.962;9.614;2022-08-27T07:39:16;101491.75;;;19.36
72675;BMP280;60752;53.962;9.614;2022-08-27T07:44:17;101492.53;;;19.28
72675;BMP280;60752;53.962;9.614;2022-08-27T07:49:18;101500.03;;;19.09
72675;BMP280;60752;53.962;9.614;2022-08-27T07:54:20;101499.22;;;18.99
72675;BMP280;60752;53.962;9.614;2022-08-27T07:59:23;101507.50;;;18.98
72675;BMP280;60752;53.962;9.614;2022-08-27T08:04:24;101514.66;;;18.89
72675;BMP280;60752;53.962;9.614;2022-08-27T08:09:24;101521.38;;;18.95
72675;BMP280;60752;53.962;9.614;2022-08-27T08:14:26;101526.41;;;18.96
72675;BMP280;60752;53.962;9.614;2022-08-27T08:19:27;101526.69;;;18.95
72675;BMP280;60752;53.962;9.614;2022-08-27T08:24:27;101534.50;;;19.00
72675;BMP280;60752;53.962;9.614;2022-08-27T08:29:29;101536.88;;;19.02
72675;BMP280;60752;53.962;9.614;2022-08-27T08:34:29;101539.53;;;19.02
72675;BMP280;60752;53.962;9.614;2022-08-27T08:39:30;101538.28;;;19.08
72675;BMP280;60752;53.962;9.614;2022-08-27T08:44:35;101547.81;;;19.09
72675;BMP280;60752;53.962;9.614;2022-08-27T08:49:42;101554.53;;;19.06
72675;BMP280;60752;53.962;9.614;2022-08-27T08:54:43;101551.38;;;19.04
72675;BMP280;60752;53.962;9.614;2022-08-27T08:59:47;101549.22;;;19.06
72675;BMP280;60752;53.962;9.614;2022-08-27T09:04:50;101550.59;;;19.12
72675;BMP280;60752;53.962;9.614;2022-08-27T09:09:52;101550.47;;;19.09
72675;BMP280;60752;53.962;9.614;2022-08-27T09:14:59;101559.34;;;19.04
72675;BMP280;60752;53.962;9.614;2022-08-27T09:20:30;101560.56;;;19.07
72675;BMP280;60752;53.962;9.614;2022-08-27T09:25:33;101565.78;;;19.20
72675;BMP280;60752;53.962;9.614;2022-08-27T09:30:41;101564.84;;;19.25
72675;BMP280;60752;53.962;9.614;2022-08-27T09:35:44;101565.50;;;19.30
72675;BMP280;60752;53.962;9.614;2022-08-27T09:40:48;101562.34;;;19.37
72675;BMP280;60752;53.962;9.614;2022-08-27T09:45:52;101555.78;;;19.52
72675;BMP280;60752;53.962;9.614;2022-08-27T09:50:54;101559.56;;;19.59
72675;BMP280;60752;53.962;9.614;2022-08-27T09:55:58;101567.94;;;19.70
72675;BMP280;60752;53.962;9.614;2022-08-27T10:01:04;101557.00;;;19.89
72675;BMP280;60752;53.962;9.614;2022-08-27T10:06:05;101553.34;;;20.11
72675;BMP280;60752;53.962;9.614;2022-08-27T10:11:10;101559.69;;;20.35
72675;BMP280;60752;53.962;9.614;2022-08-27T10:16:31;101562.13;;;20.78
72675;BMP280;60752;53.962;9.614;2022-08-27T10:21:42;101557.47;;;21.17
72675;BMP280;60752;53.962;9.614;2022-08-27T10:26:51;101548.47;;;21.42
72675;BMP280;60752;53.962;9.614;2022-08-27T10:32:07;101543.94;;;21.55
72675;BMP280;60752;53.962;9.614;2022-08-27T10:37:19;101542.31;;;21.63
72675;BMP280;60752;53.962;9.614;2022-08-27T10:42:27;101537.94;;;21.79
72675;BMP280;60752;53.962;9.614;2022-08-27T10:47:39;101537.97;;;21.91
72675;BMP280;60752;53.962;9.614;2022-08-27T10:52:47;101535.06;;;22.08
72675;BMP280;60752;53.962;9.614;2022-08-27T10:58:05;101533.97;;;22.09
72675;BMP280;60752;53.962;9.614;2022-08-27T11:03:23;101537.75;;;22.08
72675;BMP280;60752;53.962;9.614;2022-08-27T11:08:37;101529.84;;;22.12
72675;BMP280;60752;53.962;9.614;2022-08-27T11:13:42;101535.28;;;22.28
72675;BMP280;60752;53.962;9.614;2022-08-27T11:18:48;101522.94;;;22.35
72675;BMP280;60752;53.962;9.614;2022-08-27T11:23:53;101522.84;;;22.44
72675;BMP280;60752;53.962;9.614;2022-08-27T11:28:59;101515.25;;;22.58
72675;BMP280;60752;53.962;9.614;2022-08-27T11:34:08;101531.28;;;22.46
72675;BMP280;60752;53.962;9.614;2022-08-27T11:39:20;101509.91;;;22.46
72675;BMP280;60752;53.962;9.614;2022-08-27T11:44:25;101501.34;;;22.52
72675;BMP280;60752;53.962;9.614;2022-08-27T11:49:30;101515.78;;;22.63
72675;BMP280;60752;53.962;9.614;2022-08-27T11:54:44;101507.47;;;22.81
72675;BMP280;60752;53.962;9.614;2022-08-27T11:59:45;101504.00;;;22.92
72675;BMP280;60752;53.962;9.614;2022-08-27T12:04:47;101493.31;;;22.92
72675;BMP280;60752;53.962;9.614;2022-08-27T12:09:56;101491.41;;;22.93
72675;BMP280;60752;53.962;9.614;2022-08-27T12:15:04;101493.22;;;22.89
72675;BMP280;60752;53.962;9.614;2022-08-27T12:20:16;101490.47;;;22.85
72675;BMP280;60752;53.962;9.614;2022-08-27T12:25:19;101489.34;;;22.86
72675;BMP280;60752;53.962;9.614;2022-08-27T12:30:25;101485.22;;;22.89
72675;BMP280;60752;53.962;9.614;2022-08-27T12:35:31;101484.69;;;22.83
72675;BMP280;60752;53.962;9.614;2022-08-27T12:40:38;101496.16;;;22.84
72675;BMP280;60752;53.962;9.614;2022-08-27T12:45:43;101484.34;;;22.85
72675;BMP280;60752;53.962;9.614;2022-08-27T12:50:50;101482.03;;;22.83
72675;BMP280;60752;53.962;9.614;2022-08-27T12:55:59;101489.16;;;22.79
72675;BMP280;60752;53.962;9.614;2022-08-27T13:01:10;101488.19;;;22.72
72675;BMP280;60752;53.962;9.614;2022-08-27T13:06:19;101481.25;;;22.83
72675;BMP280;60752;53.962;9.614;2022-08-27T13:11:22;101486.47;;;22.79
72675;BMP280;60752;53.962;9.614;2022-08-27T13:16:22;101488.25;;;22.75
72675;BMP280;60752;53.962;9.614;2022-08-27T13:21:27;101492.50;;;22.76
72675;BMP280;60752;53.962;9.614;2022-08-27T13:26:30;101492.16;;;22.78
72675;BMP280;60752;53.962;9.614;2022-08-27T13:31:31;101491.28;;;22.74
72675;BMP280;60752;53.962;9.614;2022-08-27T13:36:46;101490.06;;;22.71
72675;BMP280;60752;53.962;9.614;2022-08-27T13:41:48;101490.75;;;22.68
72675;BMP280;60752;53.962;9.614;2022-08-27T13:46:56;101497.84;;;22.76
72675;BMP280;60752;53.962;9.614;2022-08-27T13:52:01;101486.28;;;22.72
72675;BMP280;60752;53.962;9.614;2022-08-27T13:57:04;101483.44;;;22.65
72675;BMP280;60752;53.962;9.614;2022-08-27T14:02:18;101499.09;;;22.67
72675;BMP280;60752;53.962;9.614;2022-08-27T14:07:24;101491.53;;;22.56
72675;BMP280;60752;53.962;9.614;2022-08-27T14:12:27;101496.56;;;22.58
72675;BMP280;60752;53.962;9.614;2022-08-27T14:17:35;101498.00;;;22.55
72675;BMP280;60752;53.962;9.614;2022-08-27T14:22:37;101487.13;;;22.48
72675;BMP280;60752;53.962;9.614;2022-08-27T14:27:39;101490.91;;;22.47
72675;BMP280;60752;53.962;9.614;2022-08-27T14:32:40;101505.28;;;22.43
72675;BMP280;60752;53.962;9.614;2022-08-27T14:37:43;101499.16;;;22.42
72675;BMP280;60752;53.962;9.614;2022-08-27T14:42:44;101511.81;;;22.33
72675;BMP280;60752;53.962;9.614;2022-08-27T14:47:44;101507.50;;;22.29
72675;BMP280;60752;53.962;9.614;2022-08-27T14:52:46;101512.84;;;22.29
72675;BMP280;60752;53.962;9.614;2022-08-27T14:57:47;101506.16;;;22.22
72675;BMP280;60752;53.962;9.614;2022-08-27T15:02:47;101511.41;;;22.19
72675;BMP280;60752;53.962;9.614;2022-08-27T15:07:49;101512.84;;;22.16
72675;BMP280;60752;53.962;9.614;2022-08-27T15:12:51;101509.59;;;22.11
72675;BMP280;60752;53.962;9.614;2022-08-27T15:17:52;101525.19;;;22.09
72675;BMP280;60752;53.962;9.614;2022-08-27T15:22:53;101515.09;;;22.02
72675;BMP280;60752;53.962;9.614;2022-08-27T15:27:54;101522.84;;;21.95
72675;BMP280;60752;53.962;9.614;2022-08-27T15:32:54;101523.16;;;21.94
72675;BMP280;60752;53.962;9.614;2022-08-27T15:37:56;101536.94;;;21.83
72675;BMP280;60752;53.962;9.614;2022-08-27T15:42:58;101531.72;;;21.87
72675;BMP280;60752;53.962;9.614;2022-08-27T15:48:00;101546.34;;;21.81
72675;BMP280;60752;53.962;9.614;2022-08-27T15:53:04;101535.16;;;21.75
72675;BMP280;60752;53.962;9.614;2022-08-27T15:58:05;101531.28;;;21.73
72675;BMP280;60752;53.962;9.614;2022-08-27T16:03:08;101538.47;;;21.72
72675;BMP280;60752;53.962;9.614;2022-08-27T16:08:11;101537.97;;;21.58
72675;BMP280;60752;53.962;9.614;2022-08-27T16:13:11;101538.97;;;21.54
72675;BMP280;60752;53.962;9.614;2022-08-27T16:18:12;101546.47;;;21.39
72675;BMP280;60752;53.962;9.614;2022-08-27T16:23:14;101537.69;;;21.27
72675;BMP280;60752;53.962;9.614;2022-08-27T16:28:14;101541.41;;;21.26
72675;BMP280;60752;53.962;9.614;2022-08-27T16:33:14;101533.59;;;21.21
72675;BMP280;60752;53.962;9.614;2022-08-27T16:38:16;101543.25;;;21.13
72675;BMP280;60752;53.962;9.614;2022-08-27T16:43:19;101549.06;;;21.15
72675;BMP280;60752;53.962;9.614;2022-08-27T16:48:21;101538.44;;;21.06
72675;BMP280;60752;53.962;9.614;2022-08-27T16:53:23;101548.06;;;20.99
72675;BMP280;60752;53.962;9.614;2022-08-27T16:58:25;101554.00;;;20.96
72675;BMP280;60752;53.962;9.614;2022-08-27T17:03:27;101548.88;;;20.91
72675;BMP280;60752;53.962;9.614;2022-08-27T17:08:30;101548.28;;;20.85
72675;BMP280;60752;53.962;9.614;2022-08-27T17:13:31;101555.28;;;20.69
72675;BMP280;60752;53.962;9.614;2022-08-27T17:18:31;101567.03;;;20.68
72675;BMP280;60752;53.962;9.614;2022-08-27T17:23:36;101565.38;;;20.63
72675;BMP280;60752;53.962;9.614;2022-08-27T17:28:38;101575.06;;;20.59
72675;BMP280;60752;53.962;9.614;2022-08-27T17:33:41;101569.47;;;20.52
72675;BMP280;60752;53.962;9.614;2022-08-27T17:38:43;101566.50;;;20.45
72675;BMP280;60752;53.962;9.614;2022-08-27T17:43:44;101574.09;;;20.26
72675;BMP280;60752;53.962;9.614;2022-08-27T17:48:44;101581.66;;;20.15
72675;BMP280;60752;53.962;9.614;2022-08-27T17:53:48;101583.84;;;20.04
72675;BMP280;60752;53.962;9.614;2022-08-27T17:58:50;101589.31;;;19.99
72675;BMP280;60752;53.962;9.614;2022-08-27T18:03:51;101601.69;;;19.87
72675;BMP280;60752;53.962;9.614;2022-08-27T18:08:53;101604.06;;;19.80
72675;BMP280;60752;53.962;9.614;2022-08-27T18:13:54;101609.72;;;19.61
72675;BMP280;60752;53.962;9.614;2022-08-27T18:18:56;101608.78;;;19.48
72675;BMP280;60752;53.962;9.614;2022-08-27T18:23:58;101607.19;;;19.39
72675;BMP280;60752;53.962;9.614;2022-08-27T18:28:59;101622.97;;;19.35
72675;BMP280;60752;53.962;9.614;2022-08-27T18:33:59;101616.69;;;19.22
72675;BMP280;60752;53.962;9.614;2022-08-27T18:39:01;101626.19;;;19.15
72675;BMP280;60752;53.962;9.614;2022-08-27T18:44:03;101633.19;;;19.02
72675;BMP280;60752;53.962;9.614;2022-08-27T18:49:03;101630.50;;;18.93
72675;BMP280;60752;53.962;9.614;2022-08-27T18:54:05;101635.03;;;18.84
72675;BMP280;60752;53.962;9.614;2022-08-27T18:59:06;101627.03;;;18.76
72675;BMP280;60752;53.962;9.614;2022-08-27T19:04:08;101632.56;;;18.65
72675;BMP280;60752;53.962;9.614;2022-08-27T19:09:10;101631.63;;;18.61
72675;BMP280;60752;53.962;9.614;2022-08-27T19:14:11;101634.41;;;18.56
72675;BMP280;60752;53.962;9.614;2022-08-27T19:19:13;101643.41;;;18.47
72675;BMP280;60752;53.962;9.614;2022-08-27T19:24:17;101648.81;;;18.42
72675;BMP280;60752;53.962;9.614;2022-08-27T19:29:17;101650.34;;;18.34
72675;BMP280;60752;53.962;9.614;2022-08-27T19:34:18;101656.97;;;18.23
72675;BMP280;60752;53.962;9.614;2022-08-27T19:39:20;101653.34;;;18.19
72675;BMP280;60752;53.962;9.614;2022-08-27T19:44:20;101654.63;;;18.21
72675;BMP280;60752;53.962;9.614;2022-08-27T19:49:21;101652.69;;;18.13
72675;BMP280;60752;53.962;9.614;2022-08-27T19:54:23;101657.91;;;18.05
72675;BMP280;60752;53.962;9.614;2022-08-27T19:59:23;101657.28;;;17.99
72675;BMP280;60752;53.962;9.614;2022-08-27T20:04:24;101653.06;;;17.84
72675;BMP280;60752;53.962;9.614;2022-08-27T20:09:26;101641.97;;;17.82
72675;BMP280;60752;53.962;9.614;2022-08-27T20:14:26;101651.25;;;17.71
72675;BMP280;60752;53.962;9.614;2022-08-27T20:19:27;101656.94;;;17.65
72675;BMP280;60752;53.962;9.614;2022-08-27T20:24:29;101661.06;;;17.57
72675;BMP280;60752;53.962;9.614;2022-08-27T20:29:29;101670.31;;;17.46
72675;BMP280;60752;53.962;9.614;2022-08-27T20:34:30;101669.72;;;17.35
72675;BMP280;60752;53.962;9.614;2022-08-27T20:39:32;101666.78;;;17.23
72675;BMP280;60752;53.962;9.614;2022-08-27T20:44:32;101669.91;;;17.25
72675;BMP280;60752;53.962;9.614;2022-08-27T20:49:32;101677.16;;;17.19
72675;BMP280;60752;53.962;9.614;2022-08-27T20:54:34;101669.31;;;17.14
72675;BMP280;60752;53.962;9.614;2022-08-27T20:59:35;101676.47;;;17.00
72675;BMP280;60752;53.962;9.614;2022-08-27T21:04:37;101670.66;;;16.98
72675;BMP280;60752;53.962;9.614;2022-08-27T21:09:39;101669.31;;;17.01
72675;BMP280;60752;53.962;9.614;2022-08-27T21:14:39;101670.84;;;16.88
72675;BMP280;60752;53.962;9.614;2022-08-27T21:19:40;101671.00;;;16.78
72675;BMP280;60752;53.962;9.614;2022-08-27T21:24:42;101666.66;;;16.68
72675;BMP280;60752;53.962;9.614;2022-08-27T21:29:42;101671.19;;;16.68
72675;BMP280;60752;53.962;9.614;2022-08-27T21:34:43;101672.03;;;16.63
72675;BMP280;60752;53.962;9.614;2022-08-27T21:39:45;101663.41;;;16.57
72675;BMP280;60752;53.962;9.614;2022-08-27T21:44:46;101673.28;;;16.52
72675;BMP280;60752;53.962;9.614;2022-08-27T21:49:46;101674.72;;;16.44
72675;BMP280;60752;53.962;9.614;2022-08-27T21:54:48;101676.44;;;16.35
72675;BMP280;60752;53.962;9.614;2022-08-27T21:59:49;101681.53;;;16.32
72675;BMP280;60752;53.962;9.614;2022-08-27T22:04:50;101686.88;;;16.26
72675;BMP280;60752;53.962;9.614;2022-08-27T22:09:52;101689.53;;;16.26
72675;BMP280;60752;53.962;9.614;2022-08-27T22:14:52;101686.16;;;16.21
72675;BMP280;60752;53.962;9.614;2022-08-27T22:19:52;101681.78;;;16.11
72675;BMP280;60752;53.962;9.614;2022-08-27T22:24:54;101685.78;;;16.09
72675;BMP280;60752;53.962;9.614;2022-08-27T22:29:55;101684.78;;;16.05
72675;BMP280;60752;53.962;9.614;2022-08-27T22:34:55;101678.19;;;16.07
72675;BMP280;60752;53.962;9.614;2022-08-27T22:39:57;101678.38;;;16.11
72675;BMP280;60752;53.962;9.614;2022-08-27T22:44:57;101677.63;;;16.05
72675;BMP280;60752;53.962;9.614;2022-08-27T22:49:58;101676.13;;;15.99
72675;BMP280;60752;53.962;9.614;2022-08-27T22:55:00;101684.06;;;15.99
72675;BMP280;60752;53.962;9.614;2022-08-27T23:00:00;101675.94;;;15.96
72675;BMP280;60752;53.962;9.614;2022-08-27T23:05:01;101684.97;;;15.89
72675;BMP280;60752;53.962;9.614;2022-08-27T23:10:03;101685.13;;;15.79
72675;BMP280;60752;53.962;9.614;2022-08-27T23:15:07;101680.16;;;15.73
72675;BMP280;60752;53.962;9.614;2022-08-27T23:20:09;101685.56;;;15.63
72675;BMP280;60752;53.962;9.614;2022-08-27T23:25:11;101678.47;;;15.58
72675;BMP280;60752;53.962;9.614;2022-08-27T23:30:12;101674.03;;;15.53
72675;BMP280;60752;53.962;9.614;2022-08-27T23:35:15;101670.66;;;15.48
72675;BMP280;60752;53.962;9.614;2022-08-27T23:40:18;101664.19;;;15.40
72675;BMP280;60752;53.962;9.614;2022-08-27T23:45:21;101665.25;;;15.39
72675;BMP280;60752;53.962;9.614;2022-08-27T23:50:22;101673.22;;;15.34
72675;BMP280;60752;53.962;9.614;2022-08-27T23:55:24;101665.63;;;15.27
